Quinsam — VY6800 — position and weather

sailwx.info

Track history (hours):
 
Tides and Currents Weather Stations Pressure Air Temp Water Temp Dewpoint Dewpoint Depression Visibility Wind Speed Wind Dir Waves Ship Positions

Quinsam

Last reported at 2014-Sep-17 17:33 UTC. Time now 2014-Sep-17 17:40 UTC.
Position N 49°10' W 123°56'.

Length 88 m; draft 1.5 m.

Type: Ship. MMSI: 316001266.

Date/timePositionNaut miles runAvg speedWind from/ knotsBaromVisibWave heightAir tempDewpointWater temp
2014-Sep-17 17:33N 49°10' W 123°56'0 0.2
2014-Sep-17 16:33N 49°10' W 123°56'2 2.4
2014-Sep-17 15:33N 49°11' W 123°52'0 0.4
2014-Sep-17 14:32N 49°11' W 123°52'1 0.6
2014-Sep-17 13:33N 49°11' W 123°52'0 0.1
2014-Sep-17 12:33N 49°11' W 123°52'0 0.1
2014-Sep-17 06:33N 49°11' W 123°52'0 0.0
2014-Sep-17 05:33N 49°11' W 123°52'0 0.0
2014-Sep-17 04:34N 49°11' W 123°52'1 1.4
2014-Sep-17 03:33N 49°10' W 123°54'0 0.4
2014-Sep-17 02:33N 49°11' W 123°53'1 1.0
2014-Sep-17 01:33N 49°11' W 123°52'0 0.0
2014-Sep-17 00:33N 49°11' W 123°52'1 1.1
2014-Sep-16 23:33N 49°10' W 123°53'2 1.8
2014-Sep-16 22:33N 49°10' W 123°56'3 2.7
2014-Sep-16 21:27N 49°11' W 123°52'2 2.1
2014-Sep-16 20:33N 49°10' W 123°54'1 1.0
2014-Sep-16 19:33N 49°10' W 123°56'0 0.4
2014-Sep-16 18:34N 49°10' W 123°55'0 0.1
2014-Sep-16 17:33N 49°10' W 123°55'0 0.5
2014-Sep-16 16:33N 49°10' W 123°56'2 2.4
2014-Sep-16 15:32N 49°11' W 123°52'1 0.5
2014-Sep-16 14:28N 49°11' W 123°52'0 0.0
2014-Sep-16 13:33N 49°11' W 123°52'0 0.5
2014-Sep-16 12:33N 49°11' W 123°52'0 0.5
2014-Sep-16 11:33N 49°11' W 123°52'0 0.0
2014-Sep-16 10:33N 49°11' W 123°52'0 0.0
2014-Sep-16 09:33N 49°11' W 123°52'0 0.0
2014-Sep-16 08:21N 49°11' W 123°52'0 0.0
2014-Sep-16 07:27N 49°11' W 123°52'0 0.0
2014-Sep-16 06:33N 49°11' W 123°52'0 0.0
2014-Sep-16 05:30N 49°11' W 123°52'0 0.0
2014-Sep-16 04:27N 49°11' W 123°52'1 1.4
2014-Sep-16 03:33N 49°10' W 123°53'1 0.5
2014-Sep-16 02:33N 49°11' W 123°53'1 0.7
2014-Sep-16 01:32N 49°11' W 123°52'0 0.0
2014-Sep-16 00:26N 49°11' W 123°52'1 1.6
2014-Sep-15 23:33N 49°10' W 123°54'1 1.4
2014-Sep-15 22:30N 49°10' W 123°56'3 3.0
2014-Sep-15 21:32N 49°11' W 123°52'2 1.9
2014-Sep-15 20:33N 49°10' W 123°54'1 1.0
2014-Sep-15 19:33N 49°10' W 123°56'2 1.5
2014-Sep-15 18:33N 49°10' W 123°54'2 1.5
2014-Sep-15 17:33N 49°10' W 123°56'0 0.1
2014-Sep-15 16:33N 49°10' W 123°56'2 2.1
2014-Sep-15 15:33N 49°11' W 123°53'1 0.7
2014-Sep-15 14:32N 49°11' W 123°52'0 0.2
2014-Sep-15 13:33N 49°11' W 123°52'0 0.2
2014-Sep-15 12:33N 49°11' W 123°52'0 0.4
2014-Sep-15 11:17N 49°11' W 123°52'0 0.0
2014-Sep-15 10:05N 49°11' W 123°52'0 0.0
2014-Sep-15 09:11N 49°11' W 123°52'0 0.0
2014-Sep-15 08:23N 49°11' W 123°52'0 0.0
2014-Sep-15 07:23N 49°11' W 123°52'0 0.0
2014-Sep-15 06:29N 49°11' W 123°52'2 2.5
2014-Sep-15 05:33N 49°10' W 123°55'2 2.3
2014-Sep-15 04:33N 49°11' W 123°52'1 1.0
2014-Sep-15 03:33N 49°10' W 123°53'0 0.3
2014-Sep-15 02:33N 49°11' W 123°53'1 0.7
2014-Sep-15 01:33N 49°11' W 123°52'0 0.0
2014-Sep-15 00:33N 49°11' W 123°52'1 1.2
2014-Sep-14 23:33N 49°10' W 123°53'2 1.7
2014-Sep-14 22:33N 49°10' W 123°56'0 0.2
2014-Sep-14 20:33N 49°10' W 123°55'1 0.8
2014-Sep-14 19:33N 49°10' W 123°54'2 1.7
2014-Sep-14 18:33N 49°11' W 123°52'3 2.6
2014-Sep-14 17:28N 49°10' W 123°56'3 2.8
2014-Sep-14 16:33N 49°11' W 123°52'0 0.4
2014-Sep-14 15:33N 49°11' W 123°52'3 2.9
2014-Sep-14 14:33N 49°10' W 123°56'2 2.5
2014-Sep-14 13:33N 49°11' W 123°52'0 0.1
2014-Sep-14 10:06N 49°11' W 123°52'0 0.0
2014-Sep-14 09:27N 49°11' W 123°52'0 0.0
2014-Sep-14 08:33N 49°11' W 123°52'0 0.0
2014-Sep-14 07:33N 49°11' W 123°52'0 0.0
2014-Sep-14 06:33N 49°11' W 123°52'0 0.0
2014-Sep-14 05:30N 49°11' W 123°52'0 0.0
2014-Sep-14 04:28N 49°11' W 123°52'1 1.3
2014-Sep-14 03:33N 49°10' W 123°53'0 0.2
2014-Sep-14 02:33N 49°11' W 123°53'1 0.9
2014-Sep-14 01:33N 49°11' W 123°52'0 0.0
2014-Sep-13 21:31N 49°11' W 123°52'3 2.7
2014-Sep-13 20:33N 49°10' W 123°55'2 1.9
2014-Sep-13 19:33N 49°11' W 123°53'1 0.7
2014-Sep-13 18:33N 49°11' W 123°52'3 2.9
2014-Sep-13 17:33N 49°10' W 123°56'3 2.6
2014-Sep-13 16:33N 49°11' W 123°52'0 0.3
2014-Sep-13 15:30N 49°11' W 123°52'0 0.0
2014-Sep-13 14:31N 49°11' W 123°52'1 0.6
2014-Sep-13 13:33N 49°11' W 123°52'1 0.1
2014-Sep-13 08:25N 49°11' W 123°52'0 0.0
2014-Sep-13 07:25N 49°11' W 123°52'0 0.0
2014-Sep-13 06:32N 49°11' W 123°52'0 0.0
2014-Sep-13 05:33N 49°11' W 123°52'0 0.0
2014-Sep-13 04:33N 49°11' W 123°52'2 2.1
2014-Sep-13 03:33N 49°10' W 123°55'0 0.4
2014-Sep-13 02:33N 49°10' W 123°54'1 0.8
2014-Sep-13 01:33N 49°11' W 123°53'1 0.9
2014-Sep-13 00:33N 49°11' W 123°52'0 0.3
2014-Sep-12 23:34N 49°11' W 123°52'3 2.6
2014-Sep-12 22:33N 49°10' W 123°56'3 2.6
2014-Sep-12 21:27N 49°11' W 123°52'2 2.1
2014-Sep-12 20:33N 49°10' W 123°54'1 1.0
2014-Sep-12 19:33N 49°10' W 123°56'2 1.6
2014-Sep-12 18:33N 49°10' W 123°54'2 1.6
2014-Sep-12 17:33N 49°10' W 123°56'0 0.1
2014-Sep-12 16:33N 49°10' W 123°56'3 2.6
2014-Sep-12 15:33N 49°11' W 123°52'0 0.2
2014-Sep-12 14:31N 49°11' W 123°52'1 0.5
2014-Sep-12 13:33N 49°11' W 123°52'0 0.0
2014-Sep-12 12:33N 49°11' W 123°52'1 0.1
2014-Sep-12 08:06N 49°11' W 123°52'0 0.0
2014-Sep-12 07:33N 49°11' W 123°52'0 0.0
2014-Sep-12 06:30N 49°11' W 123°52'0 0.0
2014-Sep-12 05:30N 49°11' W 123°52'0 0.0
2014-Sep-12 04:33N 49°11' W 123°52'2 1.6
2014-Sep-12 03:33N 49°10' W 123°54'0 0.4
2014-Sep-12 02:33N 49°10' W 123°53'1 1.0
2014-Sep-12 01:33N 49°11' W 123°52'0 0.1
2014-Sep-12 00:30N 49°11' W 123°52'1 0.7
2014-Sep-11 23:33N 49°11' W 123°53'2 2.1
2014-Sep-11 22:30N 49°10' W 123°56'2 1.9
2014-Sep-11 21:33N 49°11' W 123°53'1 1.1
2014-Sep-11 20:32N 49°11' W 123°52'1 1.5
2014-Sep-11 19:33N 49°10' W 123°54'1 1.4
2014-Sep-11 18:31N 49°10' W 123°56'2 1.8
2014-Sep-11 17:33N 49°10' W 123°53'2 1.7
2014-Sep-11 16:33N 49°10' W 123°56'2 1.7
2014-Sep-11 15:33N 49°10' W 123°53'1 1.2
2014-Sep-11 14:32N 49°11' W 123°52'0 0.3
2014-Sep-11 13:33N 49°11' W 123°52'0 0.4
2014-Sep-11 12:34N 49°11' W 123°53'1 0.6
2014-Sep-11 11:32N 49°11' W 123°52'0 0.0
2014-Sep-11 10:32N 49°11' W 123°52'0 0.0
2014-Sep-11 09:21N 49°11' W 123°52'0 0.0
2014-Sep-11 08:27N 49°11' W 123°52'0 0.0
2014-Sep-11 07:33N 49°11' W 123°52'0 0.1
2014-Sep-11 06:27N 49°11' W 123°52'3 3.1
2014-Sep-11 05:33N 49°10' W 123°56'1 0.5
2014-Sep-11 03:33N 49°10' W 123°54'1 0.8
2014-Sep-11 02:33N 49°10' W 123°53'1 0.7
2014-Sep-11 01:30N 49°11' W 123°52'0 0.1
2014-Sep-11 00:25N 49°11' W 123°52'0 0.3
2014-Sep-10 23:30N 49°11' W 123°52'3 2.9
2014-Sep-10 22:30N 49°10' W 123°56'3 3.0
2014-Sep-10 21:33N 49°11' W 123°52'2 2.0
2014-Sep-10 20:33N 49°10' W 123°54'1 0.8
2014-Sep-10 19:21N 49°10' W 123°56'2 2.1
2014-Sep-10 18:33N 49°10' W 123°53'2 1.7
2014-Sep-10 17:32N 49°10' W 123°56'0 0.0
2014-Sep-10 16:33N 49°10' W 123°56'2 2.4
2014-Sep-10 15:31N 49°11' W 123°52'1 0.5
2014-Sep-10 14:33N 49°11' W 123°52'0 0.2
2014-Sep-10 13:33N 49°11' W 123°52'0 0.4
2014-Sep-10 12:34N 49°11' W 123°52'1 0.1
2014-Sep-10 08:32N 49°11' W 123°52'0 0.0
2014-Sep-10 07:29N 49°11' W 123°52'0 0.0
2014-Sep-10 06:29N 49°11' W 123°52'0 0.0
2014-Sep-10 05:32N 49°11' W 123°52'0 0.0
2014-Sep-10 04:33N 49°11' W 123°52'2 1.9
2014-Sep-10 03:33N 49°10' W 123°54'1 0.8
2014-Sep-10 02:33N 49°11' W 123°53'1 1.0
2014-Sep-10 01:33N 49°11' W 123°52'0 0.1
2014-Sep-10 00:33N 49°11' W 123°52'1 0.7
2014-Sep-09 23:33N 49°11' W 123°53'2 2.1
2014-Sep-09 22:31N 49°10' W 123°56'2 2.4
2014-Sep-09 21:31N 49°11' W 123°52'1 0.5
2014-Sep-09 20:33N 49°11' W 123°52'3 2.9
2014-Sep-09 19:34N 49°10' W 123°56'0 0.1
2014-Sep-09 18:34N 49°10' W 123°56'0 0.1
2014-Sep-09 17:33N 49°10' W 123°56'0 0.1
2014-Sep-09 16:23N 49°10' W 123°56'2 2.7
2014-Sep-09 15:33N 49°11' W 123°53'1 0.7
2014-Sep-09 14:33N 49°11' W 123°52'0 0.2
2014-Sep-09 13:33N 49°11' W 123°52'0 0.0
2014-Sep-09 12:32N 49°11' W 123°52'0 0.1
2014-Sep-09 10:31N 49°11' W 123°52'0 0.0
2014-Sep-09 06:30N 49°11' W 123°52'0 0.0
2014-Sep-09 05:31N 49°11' W 123°52'2 0.9
2014-Sep-09 03:33N 49°10' W 123°54'1 0.5
2014-Sep-09 02:33N 49°10' W 123°53'0 0.5
2014-Sep-09 01:33N 49°11' W 123°53'1 0.8
2014-Sep-09 00:33N 49°11' W 123°52'1 0.5
2014-Sep-08 23:34N 49°11' W 123°52'2 2.3
2014-Sep-08 22:29N 49°10' W 123°56'2 1.4
2014-Sep-08 21:12N 49°11' W 123°53'1 1.1
2014-Sep-08 20:33N 49°10' W 123°54'1 1.1
2014-Sep-08 19:33N 49°10' W 123°56'1 0.9
2014-Sep-08 18:33N 49°10' W 123°54'1 0.9
2014-Sep-08 17:32N 49°10' W 123°56'0 0.0
2014-Sep-08 16:33N 49°10' W 123°56'3 2.8
2014-Sep-08 15:33N 49°11' W 123°52'0 0.0
2014-Sep-08 14:33N 49°11' W 123°52'1 0.5
2014-Sep-08 13:33N 49°11' W 123°52'0 0.0
2014-Sep-08 12:33N 49°11' W 123°52'0 0.4
2014-Sep-08 11:23N 49°11' W 123°52'0 0.0
2014-Sep-08 10:32N 49°11' W 123°52'0 0.0
2014-Sep-08 09:26N 49°11' W 123°52'0 0.0
2014-Sep-08 08:26N 49°11' W 123°52'0 0.0
2014-Sep-08 07:32N 49°11' W 123°52'0 0.0
2014-Sep-08 06:11N 49°11' W 123°52'2 3.9
2014-Sep-08 05:33N 49°10' W 123°55'2 2.4
2014-Sep-08 04:33N 49°11' W 123°52'1 1.4
2014-Sep-08 03:33N 49°10' W 123°54'1 0.5
2014-Sep-08 02:33N 49°11' W 123°53'1 0.7
2014-Sep-08 01:32N 49°11' W 123°52'0 0.2
2014-Sep-08 00:33N 49°11' W 123°52'1 0.8
2014-Sep-07 23:33N 49°11' W 123°53'2 2.0
2014-Sep-07 22:30N 49°10' W 123°56'3 2.8
2014-Sep-07 21:28N 49°11' W 123°52'2 2.6
2014-Sep-07 20:33N 49°10' W 123°55'2 1.8
2014-Sep-07 19:33N 49°11' W 123°53'1 0.6
2014-Sep-07 18:33N 49°11' W 123°52'  
Track history (hours):
 
Tides and Currents Weather Stations Pressure Air Temp Water Temp Dewpoint Dewpoint Depression Visibility Wind Speed Wind Dir Waves Ship Positions

Quinsam

Last reported at 2014-Sep-17 17:33 UTC. Time now 2014-Sep-17 17:40 UTC.
Position N 49°10' W 123°56'.

Length 88 m; draft 1.5 m.

Type: Ship. MMSI: 316001266.

Date/timePositionNaut miles runAvg speedWind from/ knotsBaromVisibWave heightAir tempDewpointWater temp
2014-Sep-17 17:33N 49°10' W 123°56'0 0.2
2014-Sep-17 16:33N 49°10' W 123°56'2 2.4
2014-Sep-17 15:33N 49°11' W 123°52'0 0.4
2014-Sep-17 14:32N 49°11' W 123°52'1 0.6
2014-Sep-17 13:33N 49°11' W 123°52'0 0.1
2014-Sep-17 12:33N 49°11' W 123°52'0 0.1
2014-Sep-17 06:33N 49°11' W 123°52'0 0.0
2014-Sep-17 05:33N 49°11' W 123°52'0 0.0
2014-Sep-17 04:34N 49°11' W 123°52'1 1.4
2014-Sep-17 03:33N 49°10' W 123°54'0 0.4
2014-Sep-17 02:33N 49°11' W 123°53'1 1.0
2014-Sep-17 01:33N 49°11' W 123°52'0 0.0
2014-Sep-17 00:33N 49°11' W 123°52'1 1.1
2014-Sep-16 23:33N 49°10' W 123°53'2 1.8
2014-Sep-16 22:33N 49°10' W 123°56'3 2.7
2014-Sep-16 21:27N 49°11' W 123°52'2 2.1
2014-Sep-16 20:33N 49°10' W 123°54'1 1.0
2014-Sep-16 19:33N 49°10' W 123°56'0 0.4
2014-Sep-16 18:34N 49°10' W 123°55'0 0.1
2014-Sep-16 17:33N 49°10' W 123°55'0 0.5
2014-Sep-16 16:33N 49°10' W 123°56'2 2.4
2014-Sep-16 15:32N 49°11' W 123°52'1 0.5
2014-Sep-16 14:28N 49°11' W 123°52'0 0.0
2014-Sep-16 13:33N 49°11' W 123°52'0 0.5
2014-Sep-16 12:33N 49°11' W 123°52'0 0.5
2014-Sep-16 11:33N 49°11' W 123°52'0 0.0
2014-Sep-16 10:33N 49°11' W 123°52'0 0.0
2014-Sep-16 09:33N 49°11' W 123°52'0 0.0
2014-Sep-16 08:21N 49°11' W 123°52'0 0.0
2014-Sep-16 07:27N 49°11' W 123°52'0 0.0
2014-Sep-16 06:33N 49°11' W 123°52'0 0.0
2014-Sep-16 05:30N 49°11' W 123°52'0 0.0
2014-Sep-16 04:27N 49°11' W 123°52'1 1.4
2014-Sep-16 03:33N 49°10' W 123°53'1 0.5
2014-Sep-16 02:33N 49°11' W 123°53'1 0.7
2014-Sep-16 01:32N 49°11' W 123°52'0 0.0
2014-Sep-16 00:26N 49°11' W 123°52'1 1.6
2014-Sep-15 23:33N 49°10' W 123°54'1 1.4
2014-Sep-15 22:30N 49°10' W 123°56'3 3.0
2014-Sep-15 21:32N 49°11' W 123°52'2 1.9
2014-Sep-15 20:33N 49°10' W 123°54'1 1.0
2014-Sep-15 19:33N 49°10' W 123°56'2 1.5
2014-Sep-15 18:33N 49°10' W 123°54'2 1.5
2014-Sep-15 17:33N 49°10' W 123°56'0 0.1
2014-Sep-15 16:33N 49°10' W 123°56'2 2.1
2014-Sep-15 15:33N 49°11' W 123°53'1 0.7
2014-Sep-15 14:32N 49°11' W 123°52'0 0.2
2014-Sep-15 13:33N 49°11' W 123°52'0 0.2
2014-Sep-15 12:33N 49°11' W 123°52'0 0.4
2014-Sep-15 11:17N 49°11' W 123°52'0 0.0
2014-Sep-15 10:05N 49°11' W 123°52'0 0.0
2014-Sep-15 09:11N 49°11' W 123°52'0 0.0
2014-Sep-15 08:23N 49°11' W 123°52'0 0.0
2014-Sep-15 07:23N 49°11' W 123°52'0 0.0
2014-Sep-15 06:29N 49°11' W 123°52'2 2.5
2014-Sep-15 05:33N 49°10' W 123°55'2 2.3
2014-Sep-15 04:33N 49°11' W 123°52'1 1.0
2014-Sep-15 03:33N 49°10' W 123°53'0 0.3
2014-Sep-15 02:33N 49°11' W 123°53'1 0.7
2014-Sep-15 01:33N 49°11' W 123°52'0 0.0
2014-Sep-15 00:33N 49°11' W 123°52'1 1.2
2014-Sep-14 23:33N 49°10' W 123°53'2 1.7
2014-Sep-14 22:33N 49°10' W 123°56'0 0.2
2014-Sep-14 20:33N 49°10' W 123°55'1 0.8
2014-Sep-14 19:33N 49°10' W 123°54'2 1.7
2014-Sep-14 18:33N 49°11' W 123°52'3 2.6
2014-Sep-14 17:28N 49°10' W 123°56'3 2.8
2014-Sep-14 16:33N 49°11' W 123°52'0 0.4
2014-Sep-14 15:33N 49°11' W 123°52'3 2.9
2014-Sep-14 14:33N 49°10' W 123°56'2 2.5
2014-Sep-14 13:33N 49°11' W 123°52'0 0.1
2014-Sep-14 10:06N 49°11' W 123°52'0 0.0
2014-Sep-14 09:27N 49°11' W 123°52'0 0.0
2014-Sep-14 08:33N 49°11' W 123°52'0 0.0
2014-Sep-14 07:33N 49°11' W 123°52'0 0.0
2014-Sep-14 06:33N 49°11' W 123°52'0 0.0
2014-Sep-14 05:30N 49°11' W 123°52'0 0.0
2014-Sep-14 04:28N 49°11' W 123°52'1 1.3
2014-Sep-14 03:33N 49°10' W 123°53'0 0.2
2014-Sep-14 02:33N 49°11' W 123°53'1 0.9
2014-Sep-14 01:33N 49°11' W 123°52'0 0.0
2014-Sep-13 21:31N 49°11' W 123°52'3 2.7
2014-Sep-13 20:33N 49°10' W 123°55'2 1.9
2014-Sep-13 19:33N 49°11' W 123°53'1 0.7
2014-Sep-13 18:33N 49°11' W 123°52'3 2.9
2014-Sep-13 17:33N 49°10' W 123°56'3 2.6
2014-Sep-13 16:33N 49°11' W 123°52'0 0.3
2014-Sep-13 15:30N 49°11' W 123°52'0 0.0
2014-Sep-13 14:31N 49°11' W 123°52'1 0.6
2014-Sep-13 13:33N 49°11' W 123°52'1 0.1
2014-Sep-13 08:25N 49°11' W 123°52'0 0.0
2014-Sep-13 07:25N 49°11' W 123°52'0 0.0
2014-Sep-13 06:32N 49°11' W 123°52'0 0.0
2014-Sep-13 05:33N 49°11' W 123°52'0 0.0
2014-Sep-13 04:33N 49°11' W 123°52'2 2.1
2014-Sep-13 03:33N 49°10' W 123°55'0 0.4
2014-Sep-13 02:33N 49°10' W 123°54'1 0.8
2014-Sep-13 01:33N 49°11' W 123°53'1 0.9
2014-Sep-13 00:33N 49°11' W 123°52'0 0.3
2014-Sep-12 23:34N 49°11' W 123°52'3 2.6
2014-Sep-12 22:33N 49°10' W 123°56'3 2.6
2014-Sep-12 21:27N 49°11' W 123°52'2 2.1
2014-Sep-12 20:33N 49°10' W 123°54'1 1.0
2014-Sep-12 19:33N 49°10' W 123°56'2 1.6
2014-Sep-12 18:33N 49°10' W 123°54'2 1.6
2014-Sep-12 17:33N 49°10' W 123°56'0 0.1
2014-Sep-12 16:33N 49°10' W 123°56'3 2.6
2014-Sep-12 15:33N 49°11' W 123°52'0 0.2
2014-Sep-12 14:31N 49°11' W 123°52'1 0.5
2014-Sep-12 13:33N 49°11' W 123°52'0 0.0
2014-Sep-12 12:33N 49°11' W 123°52'1 0.1
2014-Sep-12 08:06N 49°11' W 123°52'0 0.0
2014-Sep-12 07:33N 49°11' W 123°52'0 0.0
2014-Sep-12 06:30N 49°11' W 123°52'0 0.0
2014-Sep-12 05:30N 49°11' W 123°52'0 0.0
2014-Sep-12 04:33N 49°11' W 123°52'2 1.6
2014-Sep-12 03:33N 49°10' W 123°54'0 0.4
2014-Sep-12 02:33N 49°10' W 123°53'1 1.0
2014-Sep-12 01:33N 49°11' W 123°52'0 0.1
2014-Sep-12 00:30N 49°11' W 123°52'1 0.7
2014-Sep-11 23:33N 49°11' W 123°53'2 2.1
2014-Sep-11 22:30N 49°10' W 123°56'2 1.9
2014-Sep-11 21:33N 49°11' W 123°53'1 1.1
2014-Sep-11 20:32N 49°11' W 123°52'1 1.5
2014-Sep-11 19:33N 49°10' W 123°54'1 1.4
2014-Sep-11 18:31N 49°10' W 123°56'2 1.8
2014-Sep-11 17:33N 49°10' W 123°53'2 1.7
2014-Sep-11 16:33N 49°10' W 123°56'2 1.7
2014-Sep-11 15:33N 49°10' W 123°53'1 1.2
2014-Sep-11 14:32N 49°11' W 123°52'0 0.3
2014-Sep-11 13:33N 49°11' W 123°52'0 0.4
2014-Sep-11 12:34N 49°11' W 123°53'1 0.6
2014-Sep-11 11:32N 49°11' W 123°52'0 0.0
2014-Sep-11 10:32N 49°11' W 123°52'0 0.0
2014-Sep-11 09:21N 49°11' W 123°52'0 0.0
2014-Sep-11 08:27N 49°11' W 123°52'0 0.0
2014-Sep-11 07:33N 49°11' W 123°52'0 0.1
2014-Sep-11 06:27N 49°11' W 123°52'3 3.1
2014-Sep-11 05:33N 49°10' W 123°56'1 0.5
2014-Sep-11 03:33N 49°10' W 123°54'1 0.8
2014-Sep-11 02:33N 49°10' W 123°53'1 0.7
2014-Sep-11 01:30N 49°11' W 123°52'0 0.1
2014-Sep-11 00:25N 49°11' W 123°52'0 0.3
2014-Sep-10 23:30N 49°11' W 123°52'3 2.9
2014-Sep-10 22:30N 49°10' W 123°56'3 3.0
2014-Sep-10 21:33N 49°11' W 123°52'2 2.0
2014-Sep-10 20:33N 49°10' W 123°54'1 0.8
2014-Sep-10 19:21N 49°10' W 123°56'2 2.1
2014-Sep-10 18:33N 49°10' W 123°53'2 1.7
2014-Sep-10 17:32N 49°10' W 123°56'0 0.0
2014-Sep-10 16:33N 49°10' W 123°56'2 2.4
2014-Sep-10 15:31N 49°11' W 123°52'1 0.5
2014-Sep-10 14:33N 49°11' W 123°52'0 0.2
2014-Sep-10 13:33N 49°11' W 123°52'0 0.4
2014-Sep-10 12:34N 49°11' W 123°52'1 0.1
2014-Sep-10 08:32N 49°11' W 123°52'0 0.0
2014-Sep-10 07:29N 49°11' W 123°52'0 0.0
2014-Sep-10 06:29N 49°11' W 123°52'0 0.0
2014-Sep-10 05:32N 49°11' W 123°52'0 0.0
2014-Sep-10 04:33N 49°11' W 123°52'2 1.9
2014-Sep-10 03:33N 49°10' W 123°54'1 0.8
2014-Sep-10 02:33N 49°11' W 123°53'1 1.0
2014-Sep-10 01:33N 49°11' W 123°52'0 0.1
2014-Sep-10 00:33N 49°11' W 123°52'1 0.7
2014-Sep-09 23:33N 49°11' W 123°53'2 2.1
2014-Sep-09 22:31N 49°10' W 123°56'2 2.4
2014-Sep-09 21:31N 49°11' W 123°52'1 0.5
2014-Sep-09 20:33N 49°11' W 123°52'3 2.9
2014-Sep-09 19:34N 49°10' W 123°56'0 0.1
2014-Sep-09 18:34N 49°10' W 123°56'0 0.1
2014-Sep-09 17:33N 49°10' W 123°56'0 0.1
2014-Sep-09 16:23N 49°10' W 123°56'2 2.7
2014-Sep-09 15:33N 49°11' W 123°53'1 0.7
2014-Sep-09 14:33N 49°11' W 123°52'0 0.2
2014-Sep-09 13:33N 49°11' W 123°52'0 0.0
2014-Sep-09 12:32N 49°11' W 123°52'0 0.1
2014-Sep-09 10:31N 49°11' W 123°52'0 0.0
2014-Sep-09 06:30N 49°11' W 123°52'0 0.0
2014-Sep-09 05:31N 49°11' W 123°52'2 0.9
2014-Sep-09 03:33N 49°10' W 123°54'1 0.5
2014-Sep-09 02:33N 49°10' W 123°53'0 0.5
2014-Sep-09 01:33N 49°11' W 123°53'1 0.8
2014-Sep-09 00:33N 49°11' W 123°52'1 0.5
2014-Sep-08 23:34N 49°11' W 123°52'2 2.3
2014-Sep-08 22:29N 49°10' W 123°56'2 1.4
2014-Sep-08 21:12N 49°11' W 123°53'1 1.1
2014-Sep-08 20:33N 49°10' W 123°54'1 1.1
2014-Sep-08 19:33N 49°10' W 123°56'1 0.9
2014-Sep-08 18:33N 49°10' W 123°54'1 0.9
2014-Sep-08 17:32N 49°10' W 123°56'0 0.0
2014-Sep-08 16:33N 49°10' W 123°56'3 2.8
2014-Sep-08 15:33N 49°11' W 123°52'0 0.0
2014-Sep-08 14:33N 49°11' W 123°52'1 0.5
2014-Sep-08 13:33N 49°11' W 123°52'0 0.0
2014-Sep-08 12:33N 49°11' W 123°52'0 0.4
2014-Sep-08 11:23N 49°11' W 123°52'0 0.0
2014-Sep-08 10:32N 49°11' W 123°52'0 0.0
2014-Sep-08 09:26N 49°11' W 123°52'0 0.0
2014-Sep-08 08:26N 49°11' W 123°52'0 0.0
2014-Sep-08 07:32N 49°11' W 123°52'0 0.0
2014-Sep-08 06:11N 49°11' W 123°52'2 3.9
2014-Sep-08 05:33N 49°10' W 123°55'2 2.4
2014-Sep-08 04:33N 49°11' W 123°52'1 1.4
2014-Sep-08 03:33N 49°10' W 123°54'1 0.5
2014-Sep-08 02:33N 49°11' W 123°53'1 0.7
2014-Sep-08 01:32N 49°11' W 123°52'0 0.2
2014-Sep-08 00:33N 49°11' W 123°52'1 0.8
2014-Sep-07 23:33N 49°11' W 123°53'2 2.0
2014-Sep-07 22:30N 49°10' W 123°56'3 2.8
2014-Sep-07 21:28N 49°11' W 123°52'2 2.6
2014-Sep-07 20:33N 49°10' W 123°55'2 1.8
2014-Sep-07 19:33N 49°11' W 123°53'1 0.6
2014-Sep-07 18:33N 49°11' W 123°52'  

Dump ship's entire track history